Flight Track Log - Related Links

Times and Time Zones

All times are in EDT time to prevent confusion due to time zone crossing. See the AWE1705 flight status page for this flight to view local times or setup timezone preferences in your user account.

Time Position Orientation Groundspeed Altitude Reporting Facility
EDT Latitude Longitude Course Direction KTS MPH feet Rate Location/Type
Thu 05:00:45 PM 39.8833 -75.2167 270° West 133 153 800  Level Philadelphia TRACON
Thu 05:01:22 PM 39.8833 -75.1833 90° East 163 188 1,600 1,794 Climbing Philadelphia TRACON
Thu 05:02:22 PM 39.9167 -75.1167 57° Northeast 234 269 3,700 2,190 Climbing Philadelphia TRACON
Thu 05:03:00 PM 39.9000 -75.5696 270° West  Level FlightAware Approximate
Thu 05:03:28 PM 39.9500 -75.1667 311° West 249 287 6,200  Level Philadelphia TRACON
Thu 05:04:00 PM 39.9141 -75.6822 258° West  Level FlightAware Approximate
Thu 05:05:00 PM 39.9000 -75.7967 270° West  Level FlightAware Approximate
Thu 05:05:28 PM 39.9389 -75.3544 266° West 282 325 10,900  Level New York Center
Thu 05:06:00 PM 39.9000 -75.9131 270° West  Level FlightAware Approximate
Thu 05:06:28 PM 39.9325 -75.4678 266° West 313 360 12,000  Level New York Center
Thu 05:07:26 PM 39.9367 -75.5683 273° West 318 366 12,000  Level New York Center
Thu 05:08:28 PM 39.9650 -75.6894 287° West 313 360 12,000 650 Level New York Center
Thu 05:09:26 PM 39.9900 -75.7886 288° West 320 368 13,300 2,017 Climbing New York Center
Thu 05:10:27 PM 39.9933 -75.9081 272° West 327 376 16,000 2,361 Climbing New York Center
Thu 05:11:28 PM 39.9919 -76.0328 269° West 341 392 18,100 2,050 Climbing New York Center
Thu 05:12:27 PM 39.9964 -76.1658 273° West 365 420 20,100 1,950 Climbing New York Center
Thu 05:13:28 PM 39.9933 -76.3200 269° West 378 435 22,000 958 Climbing New York Center
Thu 05:14:26 PM 39.9911 -76.4556 269° West 384 442 22,000  Level New York Center
Thu 05:15:27 PM 39.9906 -76.5964 270° West 384 442 22,000  Level New York Center
Thu 05:16:28 PM 39.9900 -76.7317 270° West 384 442 22,000  Level New York Center
Thu 05:17:27 PM 39.9869 -76.8725 268° West 384 442 22,000  Level New York Center
Thu 05:18:28 PM 39.9858 -77.0158 269° West 390 449 22,000  Level New York Center
Thu 05:19:27 PM 39.9819 -77.1619 268° West 401 461 22,000  Level New York Center
Thu 05:20:28 PM 39.9825 -77.3083 270° West 406 467 22,000  Level New York Center
Thu 05:21:26 PM 39.9806 -77.4544 269° West 406 467 22,000  Level New York Center
Thu 05:21:59 PM 39.9792 -77.5047 268° West 403 464 22,000  Level Cleveland Center
Thu 05:23:01 PM 39.9767 -77.6822 269° West 405 466 22,000  Level Cleveland Center
Thu 05:24:03 PM 39.9733 -77.8283 268° West 405 466 22,000  Level Cleveland Center
Thu 05:25:05 PM 39.9728 -77.9758 270° West 406 467 22,000  Level Cleveland Center
Thu 05:26:07 PM 39.9919 -78.1211 280° West 408 470 22,000  Level Cleveland Center
Thu 05:27:09 PM 40.0139 -78.2839 280° West 406 467 22,000  Level Cleveland Center
Thu 05:28:12 PM 40.0331 -78.4261 280° West 404 465 22,000  Level Cleveland Center
Thu 05:29:14 PM 40.0519 -78.5706 280° West 404 465 22,000  Level Cleveland Center
Thu 05:30:16 PM 40.0706 -78.7133 280° West 404 465 22,000  Level Cleveland Center
Thu 05:31:18 PM 40.0883 -78.8589 279° West 405 466 22,000 -871 Level Cleveland Center
Thu 05:32:20 PM 40.1114 -79.0308 280° West 403 464 20,200 -1,887 Descending Cleveland Center
Thu 05:33:22 PM 40.1289 -79.1669 280° West 386 444 18,100 -1,984 Descending Cleveland Center
Thu 05:34:24 PM 40.1453 -79.3014 279° West 364 419 16,100 -1,824 Descending Cleveland Center
Thu 05:35:27 PM 40.1603 -79.4275 279° West 354 407 14,300 -1,776 Descending Cleveland Center
Thu 05:36:29 PM 40.1756 -79.5528 279° West 352 405 12,400 -1,645 Descending Cleveland Center
Thu 05:37:31 PM 40.2031 -79.6708 287° West 347 399 10,900 -1,161 Descending Cleveland Center
Thu 05:38:33 PM 40.2672 -79.7528 316° Northwest 331 381 10,000 -1,306 Descending Cleveland Center
Thu 05:39:35 PM 40.3328 -79.8344 316° Northwest 276 318 8,200 -1,742 Descending Cleveland Center
Thu 05:40:37 PM 40.3844 -79.8989 316° Northwest 262 302 6,400 -1,500 Descending Cleveland Center
Thu 05:41:39 PM 40.4353 -79.9628 316° Northwest 260 299 5,100 -1,306 Descending Cleveland Center
Thu 05:42:41 PM 40.4806 -80.0236 314° West 241 277 3,700 -1,200 Descending Cleveland Center
Thu 05:43:44 PM 40.4828 -80.1083 272° West 198 228 2,600 -864 Descending Cleveland Center
Thu 05:44:46 PM 40.4844 -80.1594 272° West 162 186 1,900 -677 Descending Cleveland Center
Thu 05:46:00 PM 40.4833 -80.2167 323° Northwest  Level FlightAware Approximate
Thu 05:53:00 PM 40.4914 -80.2327 323° Northwest  Level Estimated

Login

Don't have an account? Register now (free) for customized features, flight alerts, and more!